sensor_id;sensor_type;location;lat;lon;timestamp;temperature;humidity
56308;DHT22;42217;50.422;7.210;2022-11-15T00:00:28;11.00;99.90
56308;DHT22;42217;50.422;7.210;2022-11-15T00:02:54;10.90;99.90
56308;DHT22;42217;50.422;7.210;2022-11-15T00:05:20;10.90;99.90
56308;DHT22;42217;50.422;7.210;2022-11-15T00:07:45;10.90;99.90
56308;DHT22;42217;50.422;7.210;2022-11-15T00:10:11;10.90;99.90
56308;DHT22;42217;50.422;7.210;2022-11-15T00:12:37;11.00;99.90
56308;DHT22;42217;50.422;7.210;2022-11-15T00:15:03;11.00;99.90
56308;DHT22;42217;50.422;7.210;2022-11-15T00:17:29;11.10;99.90
56308;DHT22;42217;50.422;7.210;2022-11-15T00:19:55;11.10;99.90
56308;DHT22;42217;50.422;7.210;2022-11-15T00:22:21;11.00;99.90
56308;DHT22;42217;50.422;7.210;2022-11-15T00:24:46;11.00;99.90
56308;DHT22;42217;50.422;7.210;2022-11-15T00:27:12;11.00;99.90
56308;DHT22;42217;50.422;7.210;2022-11-15T00:29:38;11.00;99.90
56308;DHT22;42217;50.422;7.210;2022-11-15T00:32:09;11.00;99.90
56308;DHT22;42217;50.422;7.210;2022-11-15T00:34:34;11.00;99.90
56308;DHT22;42217;50.422;7.210;2022-11-15T00:37:00;11.00;99.90
56308;DHT22;42217;50.422;7.210;2022-11-15T00:39:26;11.10;99.90
56308;DHT22;42217;50.422;7.210;2022-11-15T00:41:51;11.00;99.90
56308;DHT22;42217;50.422;7.210;2022-11-15T00:44:17;11.00;99.90
56308;DHT22;42217;50.422;7.210;2022-11-15T00:46:43;11.20;99.90
56308;DHT22;42217;50.422;7.210;2022-11-15T00:49:08;11.10;99.90
56308;DHT22;42217;50.422;7.210;2022-11-15T00:51:34;11.00;99.90
56308;DHT22;42217;50.422;7.210;2022-11-15T00:54:00;11.00;99.90
56308;DHT22;42217;50.422;7.210;2022-11-15T00:56:25;11.00;99.90
56308;DHT22;42217;50.422;7.210;2022-11-15T00:58:52;10.90;99.90
56308;DHT22;42217;50.422;7.210;2022-11-15T01:01:18;10.90;99.90
56308;DHT22;42217;50.422;7.210;2022-11-15T01:03:43;10.90;99.90
56308;DHT22;42217;50.422;7.210;2022-11-15T01:06:09;11.00;99.90
56308;DHT22;42217;50.422;7.210;2022-11-15T01:08:36;10.90;99.90
56308;DHT22;42217;50.422;7.210;2022-11-15T01:11:08;11.00;99.90
56308;DHT22;42217;50.422;7.210;2022-11-15T01:13:35;11.00;99.90
56308;DHT22;42217;50.422;7.210;2022-11-15T01:16:14;11.00;99.90
56308;DHT22;42217;50.422;7.210;2022-11-15T01:18:40;11.00;99.90
56308;DHT22;42217;50.422;7.210;2022-11-15T01:21:15;11.10;99.90
56308;DHT22;42217;50.422;7.210;2022-11-15T01:23:40;11.10;99.90
56308;DHT22;42217;50.422;7.210;2022-11-15T01:26:10;11.20;99.90
56308;DHT22;42217;50.422;7.210;2022-11-15T01:28:37;11.20;99.90
56308;DHT22;42217;50.422;7.210;2022-11-15T01:31:06;11.20;99.90
56308;DHT22;42217;50.422;7.210;2022-11-15T01:33:35;11.30;99.90
56308;DHT22;42217;50.422;7.210;2022-11-15T01:36:13;11.40;99.90
56308;DHT22;42217;50.422;7.210;2022-11-15T01:38:39;11.50;99.90
56308;DHT22;42217;50.422;7.210;2022-11-15T01:41:05;11.50;99.90
56308;DHT22;42217;50.422;7.210;2022-11-15T01:43:35;11.60;99.90
56308;DHT22;42217;50.422;7.210;2022-11-15T01:48:47;11.50;99.90
56308;DHT22;42217;50.422;7.210;2022-11-15T01:51:16;11.40;99.90
56308;DHT22;42217;50.422;7.210;2022-11-15T01:53:46;11.40;99.90
56308;DHT22;42217;50.422;7.210;2022-11-15T01:56:19;11.30;99.90
56308;DHT22;42217;50.422;7.210;2022-11-15T01:58:45;11.20;99.90
56308;DHT22;42217;50.422;7.210;2022-11-15T02:01:13;11.20;99.90
56308;DHT22;42217;50.422;7.210;2022-11-15T02:03:52;11.30;99.90
56308;DHT22;42217;50.422;7.210;2022-11-15T02:06:20;11.20;99.90
56308;DHT22;42217;50.422;7.210;2022-11-15T02:08:47;11.10;99.90
56308;DHT22;42217;50.422;7.210;2022-11-15T02:11:13;11.20;99.90
56308;DHT22;42217;50.422;7.210;2022-11-15T02:13:39;11.10;99.90
56308;DHT22;42217;50.422;7.210;2022-11-15T02:22:37;10.90;99.90
56308;DHT22;42217;50.422;7.210;2022-11-15T02:31:04;11.00;99.90
56308;DHT22;42217;50.422;7.210;2022-11-15T02:37:11;10.90;99.90
56308;DHT22;42217;50.422;7.210;2022-11-15T02:42:23;10.80;99.90
56308;DHT22;42217;50.422;7.210;2022-11-15T02:45:11;10.70;99.90
56308;DHT22;42217;50.422;7.210;2022-11-15T02:47:43;10.70;99.90
56308;DHT22;42217;50.422;7.210;2022-11-15T02:50:12;10.80;99.90
56308;DHT22;42217;50.422;7.210;2022-11-15T02:52:38;10.80;99.90
56308;DHT22;42217;50.422;7.210;2022-11-15T02:55:04;10.80;99.90
56308;DHT22;42217;50.422;7.210;2022-11-15T03:00:11;10.80;99.90
56308;DHT22;42217;50.422;7.210;2022-11-15T03:03:00;10.80;99.90
56308;DHT22;42217;50.422;7.210;2022-11-15T03:05:37;10.90;99.90
56308;DHT22;42217;50.422;7.210;2022-11-15T03:11:01;10.90;99.90
56308;DHT22;42217;50.422;7.210;2022-11-15T03:19:06;11.00;99.90
56308;DHT22;42217;50.422;7.210;2022-11-15T03:21:35;11.10;99.90
56308;DHT22;42217;50.422;7.210;2022-11-15T03:24:03;11.20;99.90
56308;DHT22;42217;50.422;7.210;2022-11-15T03:26:33;11.20;99.90
56308;DHT22;42217;50.422;7.210;2022-11-15T03:29:04;11.10;99.90
56308;DHT22;42217;50.422;7.210;2022-11-15T03:31:36;11.10;99.90
56308;DHT22;42217;50.422;7.210;2022-11-15T03:34:29;11.20;99.90
56308;DHT22;42217;50.422;7.210;2022-11-15T03:36:56;11.10;99.90
56308;DHT22;42217;50.422;7.210;2022-11-15T03:39:23;11.10;99.90
56308;DHT22;42217;50.422;7.210;2022-11-15T03:47:14;10.90;99.90
56308;DHT22;42217;50.422;7.210;2022-11-15T03:49:45;10.90;99.90
56308;DHT22;42217;50.422;7.210;2022-11-15T03:52:12;11.00;99.90
56308;DHT22;42217;50.422;7.210;2022-11-15T03:54:52;10.90;99.90
56308;DHT22;42217;50.422;7.210;2022-11-15T03:57:18;11.00;99.90
56308;DHT22;42217;50.422;7.210;2022-11-15T03:59:43;11.00;99.90
56308;DHT22;42217;50.422;7.210;2022-11-15T04:02:09;11.10;99.90
56308;DHT22;42217;50.422;7.210;2022-11-15T04:04:35;11.00;99.90
56308;DHT22;42217;50.422;7.210;2022-11-15T04:07:00;11.00;99.90
56308;DHT22;42217;50.422;7.210;2022-11-15T04:09:26;11.10;99.90
56308;DHT22;42217;50.422;7.210;2022-11-15T04:11:52;11.10;99.90
56308;DHT22;42217;50.422;7.210;2022-11-15T04:14:17;11.10;99.90
56308;DHT22;42217;50.422;7.210;2022-11-15T04:16:43;11.10;99.90
56308;DHT22;42217;50.422;7.210;2022-11-15T04:19:09;11.10;99.90
56308;DHT22;42217;50.422;7.210;2022-11-15T04:21:53;11.10;99.90
56308;DHT22;42217;50.422;7.210;2022-11-15T04:24:37;11.20;99.90
56308;DHT22;42217;50.422;7.210;2022-11-15T04:27:02;11.30;99.90
56308;DHT22;42217;50.422;7.210;2022-11-15T04:29:28;11.30;99.90
56308;DHT22;42217;50.422;7.210;2022-11-15T04:32:04;11.20;99.90
56308;DHT22;42217;50.422;7.210;2022-11-15T04:34:30;11.10;99.90
56308;DHT22;42217;50.422;7.210;2022-11-15T04:36:56;11.00;99.90
56308;DHT22;42217;50.422;7.210;2022-11-15T04:39:37;11.00;99.90
56308;DHT22;42217;50.422;7.210;2022-11-15T04:42:03;10.90;99.90
56308;DHT22;42217;50.422;7.210;2022-11-15T04:44:29;10.70;99.90
56308;DHT22;42217;50.422;7.210;2022-11-15T04:46:55;10.60;99.90
56308;DHT22;42217;50.422;7.210;2022-11-15T04:49:20;10.70;99.90
56308;DHT22;42217;50.422;7.210;2022-11-15T04:51:46;10.70;99.90
56308;DHT22;42217;50.422;7.210;2022-11-15T04:54:12;10.70;99.90
56308;DHT22;42217;50.422;7.210;2022-11-15T04:56:37;10.60;99.90
56308;DHT22;42217;50.422;7.210;2022-11-15T04:59:03;10.60;99.90
56308;DHT22;42217;50.422;7.210;2022-11-15T05:01:29;10.50;99.90
56308;DHT22;42217;50.422;7.210;2022-11-15T05:03:54;10.50;99.90
56308;DHT22;42217;50.422;7.210;2022-11-15T05:06:39;10.50;99.90
56308;DHT22;42217;50.422;7.210;2022-11-15T05:09:04;10.50;99.90
56308;DHT22;42217;50.422;7.210;2022-11-15T05:11:30;10.60;99.90
56308;DHT22;42217;50.422;7.210;2022-11-15T05:13:56;10.50;99.90
56308;DHT22;42217;50.422;7.210;2022-11-15T05:16:21;10.60;99.90
56308;DHT22;42217;50.422;7.210;2022-11-15T05:18:51;10.60;99.90
56308;DHT22;42217;50.422;7.210;2022-11-15T05:21:17;10.60;99.90
56308;DHT22;42217;50.422;7.210;2022-11-15T05:23:42;10.70;99.90
56308;DHT22;42217;50.422;7.210;2022-11-15T05:26:09;10.60;99.90
56308;DHT22;42217;50.422;7.210;2022-11-15T05:28:36;10.60;99.90
56308;DHT22;42217;50.422;7.210;2022-11-15T05:31:03;10.50;99.90
56308;DHT22;42217;50.422;7.210;2022-11-15T05:33:30;10.60;99.90
56308;DHT22;42217;50.422;7.210;2022-11-15T05:36:02;10.40;99.90
56308;DHT22;42217;50.422;7.210;2022-11-15T05:38:29;10.20;99.90
56308;DHT22;42217;50.422;7.210;2022-11-15T05:40:55;10.20;99.90
56308;DHT22;42217;50.422;7.210;2022-11-15T05:43:21;10.20;99.90
56308;DHT22;42217;50.422;7.210;2022-11-15T05:45:47;10.00;99.90
56308;DHT22;42217;50.422;7.210;2022-11-15T05:48:13;9.90;99.90
56308;DHT22;42217;50.422;7.210;2022-11-15T05:50:42;9.90;99.90
56308;DHT22;42217;50.422;7.210;2022-11-15T05:53:10;10.10;99.90
56308;DHT22;42217;50.422;7.210;2022-11-15T05:55:39;10.20;99.90
56308;DHT22;42217;50.422;7.210;2022-11-15T05:58:05;10.20;99.90
56308;DHT22;42217;50.422;7.210;2022-11-15T06:00:31;10.30;99.90
56308;DHT22;42217;50.422;7.210;2022-11-15T06:02:56;10.20;99.90
56308;DHT22;42217;50.422;7.210;2022-11-15T06:05:22;10.00;99.90
56308;DHT22;42217;50.422;7.210;2022-11-15T06:07:48;9.90;99.90
56308;DHT22;42217;50.422;7.210;2022-11-15T06:10:13;9.80;99.90
56308;DHT22;42217;50.422;7.210;2022-11-15T06:12:39;9.80;99.90
56308;DHT22;42217;50.422;7.210;2022-11-15T06:15:05;9.90;99.90
56308;DHT22;42217;50.422;7.210;2022-11-15T06:17:31;9.90;99.90
56308;DHT22;42217;50.422;7.210;2022-11-15T06:19:56;9.90;99.90
56308;DHT22;42217;50.422;7.210;2022-11-15T06:22:22;10.00;99.90
56308;DHT22;42217;50.422;7.210;2022-11-15T06:24:48;10.20;99.90
56308;DHT22;42217;50.422;7.210;2022-11-15T06:27:14;10.20;99.90
56308;DHT22;42217;50.422;7.210;2022-11-15T06:29:40;10.20;99.90
56308;DHT22;42217;50.422;7.210;2022-11-15T06:32:06;10.20;99.90
56308;DHT22;42217;50.422;7.210;2022-11-15T06:34:31;10.20;99.90
56308;DHT22;42217;50.422;7.210;2022-11-15T06:36:57;10.10;99.90
56308;DHT22;42217;50.422;7.210;2022-11-15T06:39:23;10.10;99.90
56308;DHT22;42217;50.422;7.210;2022-11-15T06:41:48;10.00;99.90
56308;DHT22;42217;50.422;7.210;2022-11-15T06:44:14;9.90;99.90
56308;DHT22;42217;50.422;7.210;2022-11-15T06:46:40;9.90;99.90
56308;DHT22;42217;50.422;7.210;2022-11-15T06:49:05;9.80;99.90
56308;DHT22;42217;50.422;7.210;2022-11-15T06:51:31;9.90;99.90
56308;DHT22;42217;50.422;7.210;2022-11-15T06:53:57;9.90;99.90
56308;DHT22;42217;50.422;7.210;2022-11-15T06:56:22;9.90;99.90
56308;DHT22;42217;50.422;7.210;2022-11-15T06:58:48;9.90;99.90
56308;DHT22;42217;50.422;7.210;2022-11-15T07:01:14;9.80;99.90
56308;DHT22;42217;50.422;7.210;2022-11-15T07:03:41;9.70;99.90
56308;DHT22;42217;50.422;7.210;2022-11-15T07:06:08;9.70;99.90
56308;DHT22;42217;50.422;7.210;2022-11-15T07:08:34;9.60;99.90
56308;DHT22;42217;50.422;7.210;2022-11-15T07:11:02;9.70;99.90
56308;DHT22;42217;50.422;7.210;2022-11-15T07:13:29;9.60;99.90
56308;DHT22;42217;50.422;7.210;2022-11-15T07:16:00;9.60;99.90
56308;DHT22;42217;50.422;7.210;2022-11-15T07:18:26;9.60;99.90
56308;DHT22;42217;50.422;7.210;2022-11-15T07:20:52;9.60;99.90
56308;DHT22;42217;50.422;7.210;2022-11-15T07:23:18;9.60;99.90
56308;DHT22;42217;50.422;7.210;2022-11-15T07:25:44;9.60;99.90
56308;DHT22;42217;50.422;7.210;2022-11-15T07:28:09;9.50;99.90
56308;DHT22;42217;50.422;7.210;2022-11-15T07:30:35;9.40;99.90
56308;DHT22;42217;50.422;7.210;2022-11-15T07:33:01;9.40;99.90
56308;DHT22;42217;50.422;7.210;2022-11-15T07:35:28;9.30;99.90
56308;DHT22;42217;50.422;7.210;2022-11-15T07:37:56;9.40;99.90
56308;DHT22;42217;50.422;7.210;2022-11-15T07:40:22;9.50;99.90
56308;DHT22;42217;50.422;7.210;2022-11-15T07:42:47;9.50;99.90
56308;DHT22;42217;50.422;7.210;2022-11-15T07:45:23;9.60;99.90
56308;DHT22;42217;50.422;7.210;2022-11-15T07:47:51;9.60;99.90
56308;DHT22;42217;50.422;7.210;2022-11-15T07:50:17;9.80;99.90
56308;DHT22;42217;50.422;7.210;2022-11-15T07:52:43;9.90;99.90
56308;DHT22;42217;50.422;7.210;2022-11-15T07:55:09;9.90;99.90
56308;DHT22;42217;50.422;7.210;2022-11-15T07:57:35;10.00;99.90
56308;DHT22;42217;50.422;7.210;2022-11-15T08:00:01;9.90;99.90
56308;DHT22;42217;50.422;7.210;2022-11-15T08:02:26;10.00;99.90
56308;DHT22;42217;50.422;7.210;2022-11-15T08:04:52;10.10;99.90
56308;DHT22;42217;50.422;7.210;2022-11-15T08:07:18;10.20;99.90
56308;DHT22;42217;50.422;7.210;2022-11-15T08:09:43;10.20;99.90
56308;DHT22;42217;50.422;7.210;2022-11-15T08:12:09;10.30;99.90
56308;DHT22;42217;50.422;7.210;2022-11-15T08:14:35;10.30;99.90
56308;DHT22;42217;50.422;7.210;2022-11-15T08:17:01;10.20;99.90
56308;DHT22;42217;50.422;7.210;2022-11-15T08:19:27;10.30;99.90
56308;DHT22;42217;50.422;7.210;2022-11-15T08:21:54;10.30;99.90
56308;DHT22;42217;50.422;7.210;2022-11-15T08:24:19;10.30;99.90
56308;DHT22;42217;50.422;7.210;2022-11-15T08:26:45;10.40;99.90
56308;DHT22;42217;50.422;7.210;2022-11-15T08:29:11;10.50;99.90
56308;DHT22;42217;50.422;7.210;2022-11-15T08:31:37;10.50;99.90
56308;DHT22;42217;50.422;7.210;2022-11-15T08:34:04;10.50;99.90
56308;DHT22;42217;50.422;7.210;2022-11-15T08:36:30;10.50;99.90
56308;DHT22;42217;50.422;7.210;2022-11-15T08:38:56;10.50;99.90
56308;DHT22;42217;50.422;7.210;2022-11-15T08:41:28;10.50;99.90
56308;DHT22;42217;50.422;7.210;2022-11-15T08:43:55;10.50;99.90
56308;DHT22;42217;50.422;7.210;2022-11-15T08:46:21;10.50;99.90
56308;DHT22;42217;50.422;7.210;2022-11-15T08:48:47;10.40;99.90
56308;DHT22;42217;50.422;7.210;2022-11-15T08:51:12;10.50;99.90
56308;DHT22;42217;50.422;7.210;2022-11-15T08:53:38;10.40;99.90
56308;DHT22;42217;50.422;7.210;2022-11-15T08:56:10;10.50;99.90
56308;DHT22;42217;50.422;7.210;2022-11-15T08:58:37;10.50;99.90
56308;DHT22;42217;50.422;7.210;2022-11-15T09:01:03;10.50;99.90
56308;DHT22;42217;50.422;7.210;2022-11-15T09:03:29;10.60;99.90
56308;DHT22;42217;50.422;7.210;2022-11-15T09:05:57;10.60;99.90
56308;DHT22;42217;50.422;7.210;2022-11-15T09:08:23;10.70;99.90
56308;DHT22;42217;50.422;7.210;2022-11-15T09:10:49;10.70;99.90
56308;DHT22;42217;50.422;7.210;2022-11-15T09:13:15;10.70;99.90
56308;DHT22;42217;50.422;7.210;2022-11-15T09:15:40;10.80;99.90
56308;DHT22;42217;50.422;7.210;2022-11-15T09:18:06;10.90;99.90
56308;DHT22;42217;50.422;7.210;2022-11-15T09:20:31;10.90;99.90
56308;DHT22;42217;50.422;7.210;2022-11-15T09:23:01;10.80;99.90
56308;DHT22;42217;50.422;7.210;2022-11-15T09:25:28;10.80;99.90
56308;DHT22;42217;50.422;7.210;2022-11-15T09:27:54;10.90;99.90
56308;DHT22;42217;50.422;7.210;2022-11-15T09:30:19;10.80;99.90
56308;DHT22;42217;50.422;7.210;2022-11-15T09:32:45;10.80;99.90
56308;DHT22;42217;50.422;7.210;2022-11-15T09:35:10;10.90;99.90
56308;DHT22;42217;50.422;7.210;2022-11-15T09:37:36;11.00;99.90
56308;DHT22;42217;50.422;7.210;2022-11-15T09:40:03;11.00;99.90
56308;DHT22;42217;50.422;7.210;2022-11-15T09:45:46;11.10;99.90
56308;DHT22;42217;50.422;7.210;2022-11-15T09:48:38;11.10;99.90
56308;DHT22;42217;50.422;7.210;2022-11-15T09:51:12;11.20;99.90
56308;DHT22;42217;50.422;7.210;2022-11-15T09:53:52;11.30;99.90
56308;DHT22;42217;50.422;7.210;2022-11-15T09:56:27;11.40;99.90
56308;DHT22;42217;50.422;7.210;2022-11-15T09:58:58;11.40;99.90
56308;DHT22;42217;50.422;7.210;2022-11-15T10:04:16;11.40;99.90
56308;DHT22;42217;50.422;7.210;2022-11-15T10:06:49;11.40;99.90
56308;DHT22;42217;50.422;7.210;2022-11-15T10:09:28;11.40;99.90
56308;DHT22;42217;50.422;7.210;2022-11-15T10:11:56;11.30;99.90
56308;DHT22;42217;50.422;7.210;2022-11-15T10:14:24;11.30;99.90
56308;DHT22;42217;50.422;7.210;2022-11-15T10:17:14;11.30;99.90
56308;DHT22;42217;50.422;7.210;2022-11-15T10:22:58;11.30;99.90
56308;DHT22;42217;50.422;7.210;2022-11-15T10:25:27;11.40;99.90
56308;DHT22;42217;50.422;7.210;2022-11-15T10:28:21;11.40;99.90
56308;DHT22;42217;50.422;7.210;2022-11-15T10:30:55;11.40;99.90
56308;DHT22;42217;50.422;7.210;2022-11-15T10:33:25;11.50;99.90
56308;DHT22;42217;50.422;7.210;2022-11-15T10:46:34;11.80;99.90
56308;DHT22;42217;50.422;7.210;2022-11-15T10:51:48;11.60;99.90
56308;DHT22;42217;50.422;7.210;2022-11-15T10:54:27;11.60;99.90
56308;DHT22;42217;50.422;7.210;2022-11-15T10:56:57;11.60;99.90
56308;DHT22;42217;50.422;7.210;2022-11-15T10:59:31;11.70;99.90
56308;DHT22;42217;50.422;7.210;2022-11-15T11:01:59;11.80;99.90
56308;DHT22;42217;50.422;7.210;2022-11-15T11:04:25;12.00;99.90
56308;DHT22;42217;50.422;7.210;2022-11-15T11:06:54;12.10;99.90
56308;DHT22;42217;50.422;7.210;2022-11-15T11:11:52;12.40;99.90
56308;DHT22;42217;50.422;7.210;2022-11-15T11:14:34;12.40;99.90
56308;DHT22;42217;50.422;7.210;2022-11-15T11:20:30;12.40;99.90
56308;DHT22;42217;50.422;7.210;2022-11-15T11:37:38;12.30;99.90
56308;DHT22;42217;50.422;7.210;2022-11-15T11:40:34;12.40;99.90
56308;DHT22;42217;50.422;7.210;2022-11-15T11:45:52;12.60;99.90
56308;DHT22;42217;50.422;7.210;2022-11-15T11:48:52;12.70;99.90
56308;DHT22;42217;50.422;7.210;2022-11-15T11:51:43;12.90;99.90
56308;DHT22;42217;50.422;7.210;2022-11-15T11:54:53;13.10;99.90
56308;DHT22;42217;50.422;7.210;2022-11-15T11:57:05;13.40;99.90
56308;DHT22;42217;50.422;7.210;2022-11-15T12:02:29;13.80;99.90
56308;DHT22;42217;50.422;7.210;2022-11-15T12:05:03;14.10;98.40
56308;DHT22;42217;50.422;7.210;2022-11-15T12:07:34;14.30;93.90
56308;DHT22;42217;50.422;7.210;2022-11-15T12:10:15;14.30;92.70
56308;DHT22;42217;50.422;7.210;2022-11-15T12:13:11;14.20;94.10
56308;DHT22;42217;50.422;7.210;2022-11-15T12:16:02;14.10;94.60
56308;DHT22;42217;50.422;7.210;2022-11-15T12:18:29;14.10;97.00
56308;DHT22;42217;50.422;7.210;2022-11-15T12:21:05;14.30;94.40
56308;DHT22;42217;50.422;7.210;2022-11-15T12:23:39;14.20;95.20
56308;DHT22;42217;50.422;7.210;2022-11-15T12:26:10;14.50;94.30
56308;DHT22;42217;50.422;7.210;2022-11-15T12:33:56;14.50;93.80
56308;DHT22;42217;50.422;7.210;2022-11-15T12:38:56;14.70;87.90
56308;DHT22;42217;50.422;7.210;2022-11-15T12:41:30;14.60;90.20
56308;DHT22;42217;50.422;7.210;2022-11-15T12:43:56;14.40;94.20
56308;DHT22;42217;50.422;7.210;2022-11-15T12:48:58;14.40;97.00
56308;DHT22;42217;50.422;7.210;2022-11-15T12:59:55;14.50;86.40
56308;DHT22;42217;50.422;7.210;2022-11-15T13:02:38;14.60;90.40
56308;DHT22;42217;50.422;7.210;2022-11-15T13:17:55;14.80;59.80
56308;DHT22;42217;50.422;7.210;2022-11-15T13:20:31;14.90;59.80
56308;DHT22;42217;50.422;7.210;2022-11-15T13:23:12;14.70;62.10
56308;DHT22;42217;50.422;7.210;2022-11-15T13:30:36;14.50;66.50
56308;DHT22;42217;50.422;7.210;2022-11-15T13:33:13;14.50;65.70
56308;DHT22;42217;50.422;7.210;2022-11-15T13:35:41;14.30;74.60
56308;DHT22;42217;50.422;7.210;2022-11-15T13:40:56;14.20;78.30
56308;DHT22;42217;50.422;7.210;2022-11-15T13:46:25;14.40;77.60
56308;DHT22;42217;50.422;7.210;2022-11-15T13:49:03;14.40;86.60
56308;DHT22;42217;50.422;7.210;2022-11-15T13:54:15;14.20;93.80
56308;DHT22;42217;50.422;7.210;2022-11-15T13:56:47;14.10;94.90
56308;DHT22;42217;50.422;7.210;2022-11-15T13:59:35;14.10;98.30
56308;DHT22;42217;50.422;7.210;2022-11-15T14:02:13;14.00;99.90
56308;DHT22;42217;50.422;7.210;2022-11-15T14:04:50;14.00;99.90
56308;DHT22;42217;50.422;7.210;2022-11-15T14:07:22;14.10;99.90
56308;DHT22;42217;50.422;7.210;2022-11-15T14:09:48;14.10;99.90
56308;DHT22;42217;50.422;7.210;2022-11-15T14:12:32;14.10;99.90
56308;DHT22;42217;50.422;7.210;2022-11-15T14:15:00;14.20;99.90
56308;DHT22;42217;50.422;7.210;2022-11-15T14:19:57;14.10;99.90
56308;DHT22;42217;50.422;7.210;2022-11-15T14:22:25;14.00;99.90
56308;DHT22;42217;50.422;7.210;2022-11-15T14:25:17;13.90;99.90
56308;DHT22;42217;50.422;7.210;2022-11-15T14:30:53;13.80;99.90
56308;DHT22;42217;50.422;7.210;2022-11-15T14:35:44;13.70;98.00
56308;DHT22;42217;50.422;7.210;2022-11-15T14:38:10;13.60;96.00
56308;DHT22;42217;50.422;7.210;2022-11-15T14:40:41;13.50;97.40
56308;DHT22;42217;50.422;7.210;2022-11-15T14:43:11;13.50;97.80
56308;DHT22;42217;50.422;7.210;2022-11-15T14:45:38;13.50;99.10
56308;DHT22;42217;50.422;7.210;2022-11-15T14:48:04;13.40;99.90
56308;DHT22;42217;50.422;7.210;2022-11-15T14:50:32;13.40;99.90
56308;DHT22;42217;50.422;7.210;2022-11-15T14:52:58;13.30;99.90
56308;DHT22;42217;50.422;7.210;2022-11-15T14:55:26;13.40;99.90
56308;DHT22;42217;50.422;7.210;2022-11-15T14:58:00;13.30;99.90
56308;DHT22;42217;50.422;7.210;2022-11-15T15:00:31;13.20;99.90
56308;DHT22;42217;50.422;7.210;2022-11-15T15:02:57;13.00;99.90
56308;DHT22;42217;50.422;7.210;2022-11-15T15:07:55;12.80;99.90
56308;DHT22;42217;50.422;7.210;2022-11-15T15:10:21;12.70;99.90
56308;DHT22;42217;50.422;7.210;2022-11-15T15:12:48;12.60;99.90
56308;DHT22;42217;50.422;7.210;2022-11-15T15:15:21;12.60;99.90
56308;DHT22;42217;50.422;7.210;2022-11-15T15:17:47;12.50;99.90
56308;DHT22;42217;50.422;7.210;2022-11-15T15:20:13;12.50;99.90
56308;DHT22;42217;50.422;7.210;2022-11-15T15:22:39;12.40;99.90
56308;DHT22;42217;50.422;7.210;2022-11-15T15:25:27;12.30;99.90
56308;DHT22;42217;50.422;7.210;2022-11-15T15:27:53;12.20;99.90
56308;DHT22;42217;50.422;7.210;2022-11-15T15:30:20;12.20;99.90
56308;DHT22;42217;50.422;7.210;2022-11-15T15:32:46;12.20;99.90
56308;DHT22;42217;50.422;7.210;2022-11-15T15:35:16;12.10;99.90
56308;DHT22;42217;50.422;7.210;2022-11-15T15:37:43;12.00;99.90
56308;DHT22;42217;50.422;7.210;2022-11-15T15:40:21;12.00;99.90
56308;DHT22;42217;50.422;7.210;2022-11-15T15:42:48;11.90;99.90
56308;DHT22;42217;50.422;7.210;2022-11-15T15:45:15;12.00;99.90
56308;DHT22;42217;50.422;7.210;2022-11-15T15:47:41;11.90;99.90
56308;DHT22;42217;50.422;7.210;2022-11-15T15:50:25;11.90;99.90
56308;DHT22;42217;50.422;7.210;2022-11-15T15:52:52;11.90;99.90
56308;DHT22;42217;50.422;7.210;2022-11-15T15:55:18;11.90;99.90
56308;DHT22;42217;50.422;7.210;2022-11-15T15:57:43;11.80;99.90
56308;DHT22;42217;50.422;7.210;2022-11-15T16:00:10;11.80;99.90
56308;DHT22;42217;50.422;7.210;2022-11-15T16:02:36;11.80;99.90
56308;DHT22;42217;50.422;7.210;2022-11-15T16:05:02;11.80;99.90
56308;DHT22;42217;50.422;7.210;2022-11-15T16:07:27;11.80;99.90
56308;DHT22;42217;50.422;7.210;2022-11-15T16:09:55;11.70;99.90
56308;DHT22;42217;50.422;7.210;2022-11-15T16:12:28;11.70;99.90
56308;DHT22;42217;50.422;7.210;2022-11-15T16:14:53;11.70;99.90
56308;DHT22;42217;50.422;7.210;2022-11-15T16:17:22;11.60;99.90
56308;DHT22;42217;50.422;7.210;2022-11-15T16:19:49;11.60;99.90
56308;DHT22;42217;50.422;7.210;2022-11-15T16:22:14;11.50;99.90
56308;DHT22;42217;50.422;7.210;2022-11-15T16:24:40;11.40;99.90
56308;DHT22;42217;50.422;7.210;2022-11-15T16:27:14;11.40;99.90
56308;DHT22;42217;50.422;7.210;2022-11-15T16:29:40;11.40;99.90
56308;DHT22;42217;50.422;7.210;2022-11-15T16:32:05;11.30;99.90
56308;DHT22;42217;50.422;7.210;2022-11-15T16:34:31;11.30;99.90
56308;DHT22;42217;50.422;7.210;2022-11-15T16:36:57;11.30;99.90
56308;DHT22;42217;50.422;7.210;2022-11-15T16:39:22;11.20;99.90
56308;DHT22;42217;50.422;7.210;2022-11-15T16:41:48;11.20;99.90
56308;DHT22;42217;50.422;7.210;2022-11-15T16:44:14;11.20;99.90
56308;DHT22;42217;50.422;7.210;2022-11-15T16:46:43;11.10;99.90
56308;DHT22;42217;50.422;7.210;2022-11-15T16:49:15;11.10;99.90
56308;DHT22;42217;50.422;7.210;2022-11-15T16:51:41;11.10;99.90
56308;DHT22;42217;50.422;7.210;2022-11-15T16:54:07;11.00;99.90
56308;DHT22;42217;50.422;7.210;2022-11-15T16:56:33;11.10;99.90
56308;DHT22;42217;50.422;7.210;2022-11-15T16:59:00;11.00;99.90
56308;DHT22;42217;50.422;7.210;2022-11-15T17:01:27;11.00;99.90
56308;DHT22;42217;50.422;7.210;2022-11-15T17:03:53;11.00;99.90
56308;DHT22;42217;50.422;7.210;2022-11-15T17:06:20;11.00;99.90
56308;DHT22;42217;50.422;7.210;2022-11-15T17:08:46;11.00;99.90
56308;DHT22;42217;50.422;7.210;2022-11-15T17:11:18;11.00;99.90
56308;DHT22;42217;50.422;7.210;2022-11-15T17:13:44;10.90;99.90
56308;DHT22;42217;50.422;7.210;2022-11-15T17:16:15;10.80;99.90
56308;DHT22;42217;50.422;7.210;2022-11-15T17:18:41;10.80;99.90
56308;DHT22;42217;50.422;7.210;2022-11-15T17:21:15;10.70;99.90
56308;DHT22;42217;50.422;7.210;2022-11-15T17:23:41;10.70;99.90
56308;DHT22;42217;50.422;7.210;2022-11-15T17:26:09;10.70;99.90
56308;DHT22;42217;50.422;7.210;2022-11-15T17:28:36;10.70;99.90
56308;DHT22;42217;50.422;7.210;2022-11-15T17:31:09;10.70;99.90
56308;DHT22;42217;50.422;7.210;2022-11-15T17:33:35;10.70;99.90
56308;DHT22;42217;50.422;7.210;2022-11-15T17:36:04;10.60;99.90
56308;DHT22;42217;50.422;7.210;2022-11-15T17:38:31;10.60;99.90
56308;DHT22;42217;50.422;7.210;2022-11-15T17:41:05;10.60;99.90
56308;DHT22;42217;50.422;7.210;2022-11-15T17:43:34;10.60;99.90
56308;DHT22;42217;50.422;7.210;2022-11-15T17:46:05;10.50;99.90
56308;DHT22;42217;50.422;7.210;2022-11-15T17:48:32;10.50;99.90
56308;DHT22;42217;50.422;7.210;2022-11-15T17:51:05;10.50;99.90
56308;DHT22;42217;50.422;7.210;2022-11-15T17:53:33;10.50;99.90
56308;DHT22;42217;50.422;7.210;2022-11-15T17:56:04;10.50;99.90
56308;DHT22;42217;50.422;7.210;2022-11-15T17:58:31;10.50;99.90
56308;DHT22;42217;50.422;7.210;2022-11-15T18:03:38;10.50;99.90
56308;DHT22;42217;50.422;7.210;2022-11-15T18:06:05;10.50;99.90
56308;DHT22;42217;50.422;7.210;2022-11-15T18:08:32;10.50;99.90